Time;durP1;ratioP1;P1;durP2;ratioP2;P2;SDS_P1;SDS_P2;PMS_P1;PMS_P2;Temp;Humidity;BMP_temperature;BMP_pressure;BME280_temperature;BME280_humidity;BME280_pressure;Samples;Min_cycle;Max_cycle;Signal;HPM_P1;HPM_P2
2023/12/07 00:01:34;;;;;;;109.25;51.42;;;;;;;-1.10;90.53;100658.73;1816797;79;25669;-52
2023/12/07 00:04:02;;;;;;;125.72;57.25;;;;;;;-1.05;90.54;100670.02;1823336;78;25631;-53
2023/12/07 00:06:28;;;;;;;73.17;32.13;;;;;;;-1.02;90.61;100672.20;1829866;78;27861;-54
2023/12/07 00:08:58;;;;;;;69.17;29.10;;;;;;;-0.98;90.48;100672.06;1829659;78;25881;-51
2023/12/07 00:11:25;;;;;;;67.22;30.30;;;;;;;-0.97;90.24;100673.17;1829908;78;25680;-54
2023/12/07 00:13:52;;;;;;;67.47;30.82;;;;;;;-0.99;90.19;100669.94;1829746;78;26299;-52
2023/12/07 00:16:19;;;;;;;72.95;30.70;;;;;;;-1.00;90.16;100669.62;1829346;78;25903;-53
2023/12/07 00:18:45;;;;;;;73.22;29.77;;;;;;;-1.00;90.17;100672.28;1828225;78;27317;-55
2023/12/07 00:21:12;;;;;;;69.58;29.70;;;;;;;-1.02;90.21;100667.72;1828146;78;25865;-53
2023/12/07 00:23:38;;;;;;;69.50;30.02;;;;;;;-1.02;90.25;100672.20;1829399;78;25540;-55
2023/12/07 00:26:07;;;;;;;64.03;30.15;;;;;;;-1.03;90.32;100671.39;1829792;78;26127;-52
2023/12/07 00:28:33;;;;;;;69.80;28.57;;;;;;;-1.02;90.39;100674.86;1829808;78;25488;-53
2023/12/07 00:31:01;;;;;;;71.02;27.93;;;;;;;-1.01;90.48;100676.48;1829748;78;27371;-52
2023/12/07 00:33:29;;;;;;;71.95;28.60;;;;;;;-1.03;90.48;100677.23;1829689;78;25498;-53
2023/12/07 00:35:56;;;;;;;70.00;30.35;;;;;;;-1.03;90.53;100682.02;1829772;78;25423;-52
2023/12/07 00:38:23;;;;;;;73.70;30.10;;;;;;;-1.01;90.57;100674.63;1829756;78;26010;-53
2023/12/07 00:40:49;;;;;;;72.82;30.57;;;;;;;-1.00;90.67;100668.30;1829836;78;25393;-51
2023/12/07 00:43:17;;;;;;;70.95;28.87;;;;;;;-1.01;90.73;100671.98;1829851;78;27667;-52
2023/12/07 00:45:43;;;;;;;73.12;29.42;;;;;;;-1.02;90.73;100670.87;1795683;78;25603;-52
2023/12/07 00:48:10;;;;;;;76.25;29.18;;;;;;;-1.00;90.76;100670.16;1829768;78;25576;-51
2023/12/07 00:50:36;;;;;;;77.45;29.75;;;;;;;-1.00;90.86;100672.81;1829736;78;25561;-54
2023/12/07 00:53:03;;;;;;;73.62;29.92;;;;;;;-1.00;90.97;100674.94;1829846;78;25435;-54
2023/12/07 00:55:30;;;;;;;72.32;27.93;;;;;;;-1.02;91.03;100665.06;1829764;78;28183;-53
2023/12/07 00:57:57;;;;;;;81.42;30.25;;;;;;;-1.00;91.15;100678.92;1829718;78;25587;-54
2023/12/07 01:00:23;;;;;;;72.72;29.60;;;;;;;-1.01;91.22;100669.33;1829819;78;25568;-53
2023/12/07 01:02:51;;;;;;;77.32;31.10;;;;;;;-1.00;91.29;100666.97;1829764;78;25711;-51
2023/12/07 01:05:18;;;;;;;84.90;33.63;;;;;;;-1.00;91.40;100671.48;1829741;78;25610;-51
2023/12/07 01:07:44;;;;;;;85.28;31.27;;;;;;;-0.99;91.50;100666.45;1829787;78;27325;-51
2023/12/07 01:10:11;;;;;;;79.25;30.82;;;;;;;-0.99;91.54;100671.76;1829631;78;25976;-53
2023/12/07 01:12:37;;;;;;;79.35;31.17;;;;;;;-0.99;91.59;100675.25;1795273;78;25643;-53
2023/12/07 01:15:05;;;;;;;77.35;29.15;;;;;;;-0.97;91.66;100677.66;1829744;78;25531;-52
2023/12/07 01:17:32;;;;;;;82.60;31.93;;;;;;;-0.97;91.73;100682.47;1829796;78;25361;-51
2023/12/07 01:19:58;;;;;;;79.72;30.27;;;;;;;-0.96;91.77;100677.96;1829764;78;27315;-50
2023/12/07 01:22:25;;;;;;;76.85;29.32;;;;;;;-0.96;91.86;100676.63;1829675;78;25383;-50
2023/12/07 01:24:51;;;;;;;77.00;29.40;;;;;;;-0.94;91.88;100679.88;1829765;78;25618;-50
2023/12/07 01:27:19;;;;;;;82.88;29.30;;;;;;;-0.94;91.95;100677.22;1829711;78;25845;-51
2023/12/07 01:29:45;;;;;;;71.47;27.05;;;;;;;-0.93;91.99;100685.48;1829763;78;25580;-52
2023/12/07 01:32:12;;;;;;;74.65;27.95;;;;;;;-0.91;92.02;100682.08;1829745;78;27236;-51
2023/12/07 01:34:39;;;;;;;71.92;28.27;;;;;;;-0.90;92.06;100674.42;1829756;78;25702;-51
2023/12/07 01:37:05;;;;;;;76.00;29.15;;;;;;;-0.89;92.09;100677.88;1829761;78;25385;-54
2023/12/07 01:39:32;;;;;;;76.05;27.82;;;;;;;-0.89;92.13;100671.24;1829697;78;26016;-51
2023/12/07 01:41:59;;;;;;;75.78;27.62;;;;;;;-0.88;92.15;100677.66;1829745;78;25383;-54
2023/12/07 01:44:27;;;;;;;78.42;26.05;;;;;;;-0.88;92.23;100675.53;1829758;78;27322;-51
2023/12/07 01:46:55;;;;;;;73.85;26.02;;;;;;;-0.86;92.21;100680.09;1829712;78;25582;-52
2023/12/07 01:49:22;;;;;;;73.17;25.62;;;;;;;-0.87;92.24;100669.17;1829884;78;25449;-52
2023/12/07 01:51:49;;;;;;;68.25;24.75;;;;;;;-0.85;92.27;100675.06;1794625;78;25497;-52
2023/12/07 01:54:16;;;;;;;70.80;26.00;;;;;;;-0.84;92.28;100667.40;1829949;78;25636;-53
2023/12/07 01:56:43;;;;;;;67.95;25.45;;;;;;;-0.84;92.29;100665.55;1829010;78;27337;-52
2023/12/07 01:59:11;;;;;;;62.85;25.75;;;;;;;-0.84;92.35;100661.56;1829632;78;25432;-52
2023/12/07 02:01:39;;;;;;;73.47;26.48;;;;;;;-0.81;92.37;100657.66;1830191;78;25578;-54
2023/12/07 02:04:05;;;;;;;66.42;24.40;;;;;;;-0.83;92.31;100665.84;1826630;78;25851;-55
2023/12/07 02:06:32;;;;;;;64.67;26.48;;;;;;;-0.82;92.34;100666.16;1816926;79;25401;-54
2023/12/07 02:08:59;;;;;;;64.07;24.55;;;;;;;-0.83;92.40;100660.53;1816889;79;27751;-55
2023/12/07 02:11:25;;;;;;;69.58;26.37;;;;;;;-0.82;92.39;100657.36;1816744;79;25990;-56
2023/12/07 02:13:55;;;;;;;68.57;26.57;;;;;;;-0.82;92.43;100656.86;1816905;79;25548;-56
2023/12/07 02:16:26;;;;;;;67.03;25.40;;;;;;;-0.82;92.46;100662.17;1816643;79;25624;-57
2023/12/07 02:18:58;;;;;;;68.12;25.97;;;;;;;-0.81;92.41;100663.77;1816663;79;25387;-53
2023/12/07 02:21:39;;;;;;;70.25;26.02;;;;;;;-0.81;92.45;100669.09;1815870;79;28332;-52
2023/12/07 02:24:07;;;;;;;69.17;24.63;;;;;;;-0.81;92.47;100659.79;1815860;79;25600;-54
2023/12/07 02:26:39;;;;;;;62.55;24.00;;;;;;;-0.81;92.53;100658.45;1816886;79;25398;-56
2023/12/07 02:29:07;;;;;;;61.05;23.90;;;;;;;-0.80;92.56;100663.25;1816898;79;25443;-54
2023/12/07 02:31:34;;;;;;;56.50;23.40;;;;;;;-0.81;92.44;100662.97;1816853;79;25618;-55
2023/12/07 02:34:02;;;;;;;61.58;23.62;;;;;;;-0.81;92.44;100669.61;1816875;79;28391;-53
2023/12/07 02:36:30;;;;;;;59.08;23.73;;;;;;;-0.82;92.51;100664.00;1816782;79;25427;-55
2023/12/07 02:39:01;;;;;;;57.13;24.47;;;;;;;-0.83;92.51;100662.39;1817088;79;25385;-53
2023/12/07 02:41:33;;;;;;;63.30;23.85;;;;;;;-0.84;92.52;100668.20;1816871;79;25483;-53
2023/12/07 02:44:02;;;;;;;53.02;21.62;;;;;;;-0.85;92.57;100674.56;1816930;79;25449;-53
2023/12/07 02:46:29;;;;;;;59.33;23.18;;;;;;;-0.87;92.62;100675.31;1817008;79;26917;-53
2023/12/07 02:48:58;;;;;;;70.20;25.50;;;;;;;-0.87;92.63;100670.49;1773307;79;25448;-55
2023/12/07 02:51:25;;;;;;;58.25;23.57;;;;;;;-0.87;92.67;100675.31;1816986;79;25376;-55
2023/12/07 02:53:51;;;;;;;66.65;24.52;;;;;;;-0.86;92.69;100676.11;1816832;78;25618;-53
2023/12/07 02:56:18;;;;;;;64.32;23.92;;;;;;;-0.88;92.74;100673.68;1816931;79;25433;-54
2023/12/07 02:58:44;;;;;;;60.40;24.35;;;;;;;-0.88;92.80;100672.88;1816844;79;27795;-53
2023/12/07 03:01:12;;;;;;;60.45;23.73;;;;;;;-0.87;92.85;100679.30;1816765;79;25608;-56
2023/12/07 03:03:40;;;;;;;62.48;24.10;;;;;;;-0.89;92.85;100678.69;1816844;79;25430;-54
2023/12/07 03:06:08;;;;;;;61.95;24.70;;;;;;;-0.87;92.88;100678.47;1803893;78;25666;-53
2023/12/07 03:08:35;;;;;;;61.58;23.95;;;;;;;-0.87;92.91;100675.80;1803182;79;25545;-53
2023/12/07 03:11:01;;;;;;;57.43;21.70;;;;;;;-0.88;92.94;100673.68;1803079;79;27778;-52
2023/12/07 03:13:28;;;;;;;58.85;23.15;;;;;;;-0.88;92.88;100676.86;1803178;79;25415;-52
2023/12/07 03:15:55;;;;;;;56.68;24.75;;;;;;;-0.89;92.93;100672.57;1803152;79;25436;-52
2023/12/07 03:18:22;;;;;;;52.40;22.27;;;;;;;-0.87;92.94;100677.13;1797718;79;25924;-53
2023/12/07 03:20:50;;;;;;;60.73;22.40;;;;;;;-0.88;92.98;100669.70;1803134;79;25557;-55
2023/12/07 03:23:17;;;;;;;55.48;22.00;;;;;;;-0.89;92.99;100671.24;1803138;79;27759;-53
2023/12/07 03:25:43;;;;;;;59.30;21.85;;;;;;;-0.89;93.03;100669.39;1803058;79;25607;-55
2023/12/07 03:28:10;;;;;;;56.15;22.10;;;;;;;-0.89;93.00;100666.73;1803121;79;25378;-53
2023/12/07 03:30:37;;;;;;;62.45;22.77;;;;;;;-0.89;93.06;100673.89;1803068;79;25456;-52
2023/12/07 03:33:04;;;;;;;63.65;23.62;;;;;;;-0.90;93.12;100671.77;1803173;79;25598;-53
2023/12/07 03:35:31;;;;;;;59.25;23.27;;;;;;;-0.91;93.13;100674.12;1803140;79;27331;-52
2023/12/07 03:37:58;;;;;;;66.47;22.82;;;;;;;-0.90;93.14;100676.25;1803036;79;25615;-52
2023/12/07 03:40:25;;;;;;;55.38;22.90;;;;;;;-0.92;93.14;100676.99;1803210;79;25444;-53
2023/12/07 03:42:51;;;;;;;58.65;22.80;;;;;;;-0.91;93.22;100675.45;1803099;79;25462;-52
2023/12/07 03:45:18;;;;;;;57.13;23.45;;;;;;;-0.92;93.31;100675.14;1803171;79;25593;-52
2023/12/07 03:47:45;;;;;;;59.53;23.27;;;;;;;-0.91;93.34;100672.79;1803111;79;27355;-54
2023/12/07 03:50:12;;;;;;;58.08;21.70;;;;;;;-0.90;93.36;100678.91;1802996;79;25685;-56
2023/12/07 03:52:39;;;;;;;63.98;22.77;;;;;;;-0.92;93.42;100676.47;1803172;79;25671;-56
2023/12/07 03:55:07;;;;;;;66.17;23.75;;;;;;;-0.91;93.49;100674.12;1803091;79;26303;-56
2023/12/07 03:57:34;;;;;;;59.63;22.17;;;;;;;-0.91;93.53;100671.98;1799858;79;25651;-56
2023/12/07 04:00:00;;;;;;;62.48;22.37;;;;;;;-0.91;93.60;100676.77;1803141;79;28305;-55
2023/12/07 04:02:27;;;;;;;60.85;23.40;;;;;;;-0.90;93.65;100679.73;1803013;79;26037;-52
2023/12/07 04:04:54;;;;;;;58.05;22.52;;;;;;;-0.90;93.68;100685.05;1810678;78;25393;-55
2023/12/07 04:07:21;;;;;;;59.40;21.57;;;;;;;-0.89;93.65;100683.19;1829840;78;25548;-53
2023/12/07 04:09:49;;;;;;;58.42;23.52;;;;;;;-0.89;93.73;100681.87;1829855;78;25539;-54
2023/12/07 04:12:16;;;;;;;59.50;23.62;;;;;;;-0.89;93.75;100680.53;1829832;78;28362;-54
2023/12/07 04:14:43;;;;;;;60.38;23.15;;;;;;;-0.87;93.78;100681.13;1829792;78;25579;-53
2023/12/07 04:17:10;;;;;;;57.88;22.02;;;;;;;-0.87;93.83;100685.10;1829796;78;25391;-53
2023/12/07 04:19:36;;;;;;;51.92;21.75;;;;;;;-0.88;93.81;100682.17;1829768;78;25593;-53
2023/12/07 04:22:03;;;;;;;60.67;22.42;;;;;;;-0.88;93.85;100685.63;1829885;78;25542;-52
2023/12/07 04:24:30;;;;;;;52.55;21.65;;;;;;;-0.87;93.84;100680.63;1829795;78;27372;-52
2023/12/07 04:26:57;;;;;;;57.10;21.87;;;;;;;-0.85;93.89;100685.69;1829700;78;25599;-56
2023/12/07 04:29:23;;;;;;;51.65;20.75;;;;;;;-0.86;93.87;100683.55;1829804;78;25599;-55
2023/12/07 04:31:50;;;;;;;58.42;21.80;;;;;;;-0.86;93.89;100684.88;1829716;78;25537;-54
2023/12/07 04:34:17;;;;;;;54.83;23.27;;;;;;;-0.85;93.94;100681.70;1829846;78;25639;-55
2023/12/07 04:36:43;;;;;;;60.15;22.60;;;;;;;-0.85;93.95;100685.19;1829782;78;28063;-56
2023/12/07 04:39:11;;;;;;;55.35;22.22;;;;;;;-0.86;93.99;100682.23;1829707;78;25588;-54
2023/12/07 04:41:38;;;;;;;57.45;21.55;;;;;;;-0.85;94.03;100681.20;1829778;78;25449;-56
2023/12/07 04:44:05;;;;;;;53.35;21.70;;;;;;;-0.84;94.01;100685.98;1829733;78;25671;-52
2023/12/07 04:46:33;;;;;;;56.80;23.22;;;;;;;-0.84;94.06;100678.82;1829832;78;25179;-52
2023/12/07 04:49:00;;;;;;;57.78;23.57;;;;;;;-0.83;94.07;100688.95;1829814;78;27947;-56
2023/12/07 04:51:26;;;;;;;56.25;21.97;;;;;;;-0.83;94.09;100685.77;1829660;78;25377;-55
2023/12/07 04:53:53;;;;;;;55.12;22.37;;;;;;;-0.82;94.12;100681.26;1829791;78;25450;-53
2023/12/07 04:56:19;;;;;;;53.58;22.82;;;;;;;-0.81;94.11;100682.89;1829724;78;25619;-54
2023/12/07 04:58:46;;;;;;;57.05;22.40;;;;;;;-0.80;94.14;100682.67;1829832;78;25631;-52
2023/12/07 05:01:13;;;;;;;58.87;21.68;;;;;;;-0.81;94.18;100686.35;1829878;78;28338;-55
2023/12/07 05:03:40;;;;;;;51.53;21.60;;;;;;;-0.82;94.21;100683.91;1829787;78;25378;-55
2023/12/07 05:06:07;;;;;;;59.55;21.77;;;;;;;-0.81;94.22;100686.35;1821178;78;25556;-53
2023/12/07 05:08:34;;;;;;;57.33;23.00;;;;;;;-0.80;94.24;100684.00;1816718;79;25683;-54
2023/12/07 05:11:01;;;;;;;52.65;21.50;;;;;;;-0.79;94.26;100685.60;1816785;79;25445;-52
2023/12/07 05:13:28;;;;;;;53.05;22.58;;;;;;;-0.78;94.30;100691.22;1816747;78;28187;-53
2023/12/07 05:15:55;;;;;;;50.43;22.07;;;;;;;-0.76;94.30;100688.34;1816673;79;25656;-53
2023/12/07 05:18:22;;;;;;;51.58;21.55;;;;;;;-0.76;94.29;100691.80;1816737;79;25588;-55
2023/12/07 05:20:49;;;;;;;53.15;23.10;;;;;;;-0.78;94.36;100687.77;1816736;78;25563;-55
2023/12/07 05:23:17;;;;;;;50.90;22.02;;;;;;;-0.78;94.40;100695.73;1816896;79;25552;-53
2023/12/07 05:25:45;;;;;;;54.42;22.10;;;;;;;-0.76;94.42;100696.31;1816886;79;27246;-55
2023/12/07 05:28:12;;;;;;;58.68;23.22;;;;;;;-0.74;94.39;100698.23;1816821;78;25698;-52
2023/12/07 05:30:39;;;;;;;49.98;21.97;;;;;;;-0.74;94.37;100701.41;1816877;79;25594;-52
2023/12/07 05:33:08;;;;;;;57.60;22.30;;;;;;;-0.76;94.34;100702.43;1816854;79;26329;-56
2023/12/07 05:35:36;;;;;;;50.23;21.07;;;;;;;-0.74;94.34;100698.75;1817031;79;25639;-54
2023/12/07 05:38:04;;;;;;;46.83;20.97;;;;;;;-0.73;94.39;100699.02;1817056;79;27962;-56
2023/12/07 05:40:31;;;;;;;52.48;22.05;;;;;;;-0.72;94.36;100705.97;1816769;79;26167;-54
2023/12/07 05:42:58;;;;;;;49.03;20.37;;;;;;;-0.72;94.37;100709.95;1816888;79;25529;-53
2023/12/07 05:45:26;;;;;;;46.83;19.62;;;;;;;-0.72;94.38;100709.95;1816863;79;26231;-53
2023/12/07 05:47:53;;;;;;;45.25;20.45;;;;;;;-0.72;94.44;100710.77;1816897;79;25430;-53
2023/12/07 05:50:21;;;;;;;46.80;21.57;;;;;;;-0.71;94.48;100719.03;1816850;79;27370;-52
2023/12/07 05:52:48;;;;;;;53.98;22.60;;;;;;;-0.73;94.54;100710.48;1816769;79;25726;-54
2023/12/07 05:55:15;;;;;;;45.92;21.35;;;;;;;-0.72;94.61;100718.73;1816849;79;25532;-53
2023/12/07 05:57:41;;;;;;;44.88;21.15;;;;;;;-0.72;94.60;100710.77;1816816;79;25486;-55
2023/12/07 06:00:10;;;;;;;49.63;20.90;;;;;;;-0.70;94.62;100717.19;1816978;79;25466;-54
2023/12/07 06:02:37;;;;;;;52.00;22.48;;;;;;;-0.71;94.64;100712.39;1787755;79;27326;-55
2023/12/07 06:05:05;;;;;;;41.88;21.33;;;;;;;-0.70;94.61;100720.64;1815637;79;25692;-56
2023/12/07 06:07:32;;;;;;;46.68;20.57;;;;;;;-0.69;94.64;100724.13;1803228;79;25525;-53
2023/12/07 06:09:59;;;;;;;47.20;22.07;;;;;;;-0.71;94.71;100720.36;1803139;79;25773;-52
2023/12/07 06:12:26;;;;;;;46.18;21.55;;;;;;;-0.70;94.78;100720.64;1803182;79;25567;-52
2023/12/07 06:14:53;;;;;;;44.60;20.82;;;;;;;-0.67;94.81;100726.04;1803187;79;28055;-54
2023/12/07 06:17:21;;;;;;;48.13;20.85;;;;;;;-0.70;94.77;100724.63;1803103;79;25375;-52
2023/12/07 06:19:48;;;;;;;48.80;21.30;;;;;;;-0.70;94.82;100731.27;1803454;79;25475;-51
2023/12/07 06:22:15;;;;;;;42.15;20.15;;;;;;;-0.69;94.88;100740.07;1802338;79;25683;-52
2023/12/07 06:24:42;;;;;;;43.38;20.82;;;;;;;-0.69;94.98;100736.09;1801736;79;25981;-55
2023/12/07 06:27:09;;;;;;;43.23;19.87;;;;;;;-0.68;94.99;100735.86;1802110;79;27657;-54
2023/12/07 06:29:37;;;;;;;50.73;22.93;;;;;;;-0.69;95.01;100740.88;1802039;79;25723;-55
2023/12/07 06:32:04;;;;;;;43.73;21.80;;;;;;;-0.69;95.05;100741.40;1802084;79;25618;-54
2023/12/07 06:34:31;;;;;;;49.10;21.27;;;;;;;-0.68;95.11;100744.33;1802123;79;25657;-54
2023/12/07 06:36:57;;;;;;;52.58;22.37;;;;;;;-0.67;95.16;100743.31;1802618;79;25609;-56
2023/12/07 06:39:25;;;;;;;44.95;20.62;;;;;;;-0.65;95.19;100751.86;1803129;79;28337;-53
2023/12/07 06:41:51;;;;;;;44.50;22.52;;;;;;;-0.64;95.26;100743.67;1803053;79;25379;-55
2023/12/07 06:44:18;;;;;;;43.92;21.97;;;;;;;-0.63;95.25;100736.50;1803166;79;25458;-55
2023/12/07 06:46:44;;;;;;;44.45;22.42;;;;;;;-0.60;95.27;100745.36;1803146;79;25529;-52
2023/12/07 06:49:12;;;;;;;45.85;20.88;;;;;;;-0.59;95.31;100745.14;1803191;79;25585;-55
2023/12/07 06:51:40;;;;;;;47.50;21.07;;;;;;;-0.57;95.27;100746.25;1803235;79;27858;-52
2023/12/07 06:54:07;;;;;;;46.30;20.88;;;;;;;-0.57;95.34;100744.92;1802607;79;25630;-52
2023/12/07 06:56:35;;;;;;;45.58;22.35;;;;;;;-0.54;95.30;100758.30;1803140;79;25643;-56
2023/12/07 06:59:02;;;;;;;44.40;21.52;;;;;;;-0.57;95.24;100753.69;1803107;79;26281;-54
2023/12/07 07:01:29;;;;;;;45.08;22.50;;;;;;;-0.54;95.34;100755.64;1803171;79;25581;-56
2023/12/07 07:03:56;;;;;;;48.83;22.42;;;;;;;-0.52;95.48;100757.55;1803169;79;28343;-55
2023/12/07 07:06:23;;;;;;;45.10;22.25;;;;;;;-0.50;95.53;100764.77;1802954;78;25404;-54
2023/12/07 07:08:49;;;;;;;45.45;22.40;;;;;;;-0.48;95.62;100766.68;1803139;79;25555;-56
2023/12/07 07:11:18;;;;;;;48.42;21.75;;;;;;;-0.45;95.77;100764.38;1803079;79;26117;-52
2023/12/07 07:13:44;;;;;;;44.67;22.40;;;;;;;-0.42;95.82;100766.60;1803265;79;25516;-55
2023/12/07 07:16:11;;;;;;;40.43;20.60;;;;;;;-0.41;95.79;100762.09;1803159;79;27217;-56
2023/12/07 07:18:41;;;;;;;45.63;21.77;;;;;;;-0.39;95.76;100770.14;1803103;79;25457;-53
2023/12/07 07:21:08;;;;;;;46.40;22.32;;;;;;;-0.34;95.90;100765.98;1803200;79;25544;-51
2023/12/07 07:23:37;;;;;;;46.05;21.25;;;;;;;-0.31;96.00;100768.20;1803069;79;26089;-51
2023/12/07 07:26:05;;;;;;;45.95;21.30;;;;;;;-0.29;95.83;100771.44;1803157;79;25452;-54
2023/12/07 07:28:32;;;;;;;49.45;23.20;;;;;;;-0.27;95.89;100773.38;1803115;79;27663;-51
2023/12/07 07:30:59;;;;;;;49.88;24.02;;;;;;;-0.23;96.01;100771.88;1802991;79;25607;-52
2023/12/07 07:33:26;;;;;;;49.03;22.52;;;;;;;-0.22;96.03;100764.22;1782791;79;25460;-54
2023/12/07 07:35:53;;;;;;;44.98;22.52;;;;;;;-0.18;95.93;100771.22;1803128;79;25462;-54
2023/12/07 07:38:21;;;;;;;48.95;21.55;;;;;;;-0.16;95.93;100774.45;1803200;79;25447;-52
2023/12/07 07:40:49;;;;;;;44.03;23.35;;;;;;;-0.13;95.89;100776.67;1803069;79;27260;-52
2023/12/07 07:43:17;;;;;;;49.25;23.20;;;;;;;-0.16;95.61;100768.61;1803024;79;25649;-52
2023/12/07 07:45:45;;;;;;;45.03;22.85;;;;;;;-0.13;95.72;100766.84;1803058;79;25603;-52
2023/12/07 07:48:13;;;;;;;46.70;24.52;;;;;;;-0.11;95.85;100768.74;1803042;79;25980;-51
2023/12/07 07:50:40;;;;;;;48.87;23.50;;;;;;;-0.06;96.05;100773.39;1782618;79;25411;-51
2023/12/07 07:53:07;;;;;;;52.13;24.82;;;;;;;-0.04;96.04;100773.97;1803161;79;27321;-52
2023/12/07 07:55:35;;;;;;;47.03;22.98;;;;;;;0.00;96.16;100780.48;1803036;79;25704;-56
2023/12/07 07:58:03;;;;;;;50.80;23.55;;;;;;;0.03;96.01;100771.22;1803233;79;25542;-54
2023/12/07 08:00:30;;;;;;;48.02;23.95;;;;;;;0.06;96.06;100777.42;1803149;79;25636;-55
2023/12/07 08:03:00;;;;;;;51.50;24.92;;;;;;;0.05;95.85;100764.65;1782778;79;25605;-53
2023/12/07 08:05:27;;;;;;;53.83;26.07;;;;;;;0.09;96.03;100771.12;1803289;79;30156;-54
2023/12/07 08:07:55;;;;;;;48.20;23.12;;;;;;;0.19;96.09;100786.54;1802998;78;25532;-54
2023/12/07 08:10:22;;;;;;;50.35;24.15;;;;;;;0.15;95.97;100770.72;1803176;79;25514;-54
2023/12/07 08:12:49;;;;;;;49.75;26.30;;;;;;;0.16;95.68;100781.14;1803086;79;25654;-56
2023/12/07 08:15:20;;;;;;;48.60;24.72;;;;;;;0.20;95.77;100777.50;1803459;79;25627;-54
2023/12/07 08:17:46;;;;;;;;;;;;;;;0.21;95.61;100782.33;1805720;78;27357;-55
2023/12/07 08:20:15;;;;;;;50.12;23.98;;;;;;;0.23;95.76;100783.70;1803044;79;25649;-55
2023/12/07 08:22:45;;;;;;;52.45;25.43;;;;;;;0.27;95.90;100780.06;1803136;79;25462;-55
2023/12/07 08:25:12;;;;;;;53.60;26.40;;;;;;;0.30;95.94;100777.75;1803061;79;25532;-54
2023/12/07 08:27:41;;;;;;;49.03;24.12;;;;;;;0.33;95.81;100777.30;1782567;79;25457;-55
2023/12/07 08:30:10;;;;;;;49.40;27.40;;;;;;;0.34;95.57;100778.10;1803269;79;27322;-56
2023/12/07 08:32:39;;;;;;;56.45;26.90;;;;;;;0.37;95.71;100777.66;1803255;79;25357;-55
2023/12/07 08:35:08;;;;;;;51.10;25.43;;;;;;;0.43;95.71;100782.60;1803263;79;34673;-56
2023/12/07 08:37:39;;;;;;;52.25;27.55;;;;;;;0.44;95.62;100782.87;1803286;79;25626;-54
2023/12/07 08:40:11;;;;;;;51.33;26.60;;;;;;;0.48;95.67;100789.37;1803142;79;25439;-53
2023/12/07 08:42:37;;;;;;;56.92;28.77;;;;;;;0.48;95.33;100790.17;1803126;79;27373;-55
2023/12/07 08:45:09;;;;;;;54.48;27.10;;;;;;;0.52;95.38;100793.99;1803008;79;25442;-54
2023/12/07 08:47:38;;;;;;;51.65;27.05;;;;;;;0.55;95.30;100795.40;1803086;79;25411;-56
2023/12/07 08:50:09;;;;;;;58.45;28.07;;;;;;;0.58;95.41;100796.77;1802742;79;25415;-56
2023/12/07 08:52:38;;;;;;;56.10;27.90;;;;;;;0.64;95.47;100807.84;1802694;79;25651;-55
2023/12/07 08:55:08;;;;;;;58.25;28.75;;;;;;;0.69;95.68;100803.97;1803213;79;27337;-53
2023/12/07 08:57:34;;;;;;;;;;;;;;;0.73;95.64;100799.80;1805854;79;25514;-54
2023/12/07 09:00:00;;;;;;;62.15;30.20;;;;;;;0.76;95.33;100803.34;1803296;79;25514;-56
2023/12/07 09:02:30;;;;;;;66.33;32.80;;;;;;;0.79;95.57;100802.87;1803171;79;26291;-56
2023/12/07 09:04:56;;;;;;;63.55;31.70;;;;;;;0.82;95.08;100802.42;1803404;79;25428;-55
2023/12/07 09:07:23;;;;;;;62.90;34.05;;;;;;;0.84;94.82;100804.86;1803084;78;28302;-54
2023/12/07 09:09:49;;;;;;;63.23;30.82;;;;;;;0.87;94.97;100802.54;1803171;79;25461;-55
2023/12/07 09:12:18;;;;;;;64.50;31.82;;;;;;;0.88;94.84;100802.00;1803161;79;25579;-55
2023/12/07 09:14:44;;;;;;;62.30;30.65;;;;;;;0.88;93.98;100808.66;1803182;79;25712;-56
2023/12/07 09:17:11;;;;;;;58.73;29.63;;;;;;;0.85;93.89;100810.45;1803264;79;25400;-53
2023/12/07 09:19:38;;;;;;;62.65;32.30;;;;;;;0.81;93.54;100798.66;1803179;79;28314;-53
2023/12/07 09:22:04;;;;;;;57.95;29.55;;;;;;;0.76;93.61;100799.34;1803105;79;25969;-55
2023/12/07 09:24:33;;;;;;;61.88;30.32;;;;;;;0.75;93.57;100799.06;1803206;79;25556;-55
2023/12/07 09:27:00;;;;;;;60.35;29.18;;;;;;;0.74;93.59;100800.09;1803247;79;25430;-54
2023/12/07 09:29:28;;;;;;;54.27;28.95;;;;;;;0.71;93.30;100796.56;1803241;79;25446;-56
2023/12/07 09:31:57;;;;;;;54.90;28.83;;;;;;;0.68;93.27;100794.35;1803162;79;27200;-51
2023/12/07 09:34:26;;;;;;;55.28;29.50;;;;;;;0.65;93.27;100794.31;1803267;79;25816;-54
2023/12/07 09:37:10;;;;;;;57.98;29.75;;;;;;;0.61;93.05;100797.13;1803396;79;25548;-52
2023/12/07 09:39:38;;;;;;;58.05;28.70;;;;;;;0.60;93.42;100803.50;1802878;79;25631;-53
2023/12/07 09:42:08;;;;;;;57.33;29.82;;;;;;;0.62;93.82;100798.76;1803214;79;25593;-54
2023/12/07 09:44:37;;;;;;;60.95;32.48;;;;;;;0.67;94.23;100800.73;1803192;79;27334;-55
2023/12/07 09:47:06;;;;;;;58.98;29.65;;;;;;;0.68;93.84;100803.67;1803234;79;25221;-55
2023/12/07 09:49:33;;;;;;;62.60;32.30;;;;;;;0.65;93.53;100804.95;1803371;79;25619;-53
2023/12/07 09:52:05;;;;;;;64.97;33.65;;;;;;;0.63;93.42;100799.06;1803116;79;25709;-57
2023/12/07 09:54:31;;;;;;;68.60;33.10;;;;;;;0.61;93.17;100801.64;1803278;79;25503;-57
2023/12/07 09:56:59;;;;;;;65.25;31.90;;;;;;;0.62;93.41;100797.42;1803136;79;27306;-53
2023/12/07 09:59:29;;;;;;;59.90;31.10;;;;;;;0.63;93.22;100799.56;1803130;79;25611;-55
2023/12/07 10:01:55;;;;;;;60.23;31.52;;;;;;;0.62;93.25;100797.95;1803387;79;25447;-55
2023/12/07 10:04:25;;;;;;;63.23;31.37;;;;;;;0.63;93.65;100792.41;1803083;79;25679;-54
2023/12/07 10:06:56;;;;;;;63.40;31.30;;;;;;;0.68;93.81;100794.35;1808774;78;25452;-54
2023/12/07 10:09:26;;;;;;;64.65;32.10;;;;;;;0.71;93.96;100793.37;1829890;78;27285;-55
2023/12/07 10:12:05;;;;;;;53.48;29.20;;;;;;;0.75;93.81;100800.41;1829783;78;25397;-56
2023/12/07 10:14:34;;;;;;;62.38;31.55;;;;;;;0.77;93.93;100799.64;1829998;78;25380;-53
2023/12/07 10:17:01;;;;;;;60.78;31.17;;;;;;;0.82;93.74;100802.92;1830048;78;25849;-55
2023/12/07 10:19:30;;;;;;;59.00;29.67;;;;;;;0.84;93.50;100800.86;1830011;78;25425;-56
2023/12/07 10:22:00;;;;;;;63.05;32.63;;;;;;;0.84;93.00;100795.00;1829815;78;27886;-54
2023/12/07 10:24:30;;;;;;;59.70;31.80;;;;;;;0.80;92.56;100799.19;1829764;78;25365;-55
2023/12/07 10:27:00;;;;;;;62.48;33.30;;;;;;;0.77;92.70;100790.32;1829888;78;25526;-53
2023/12/07 10:29:28;;;;;;;64.22;34.78;;;;;;;0.81;92.86;100792.80;1829796;78;25549;-55
2023/12/07 10:32:06;;;;;;;59.58;32.25;;;;;;;0.81;92.98;100794.13;1829916;78;25536;-55
2023/12/07 10:34:35;;;;;;;60.88;31.68;;;;;;;0.84;93.07;100795.00;1829802;78;28000;-56
2023/12/07 10:37:04;;;;;;;64.62;31.45;;;;;;;0.82;92.61;100798.42;1829939;78;25440;-53
2023/12/07 10:39:30;;;;;;;53.60;29.92;;;;;;;0.82;92.68;100803.75;1829762;78;25445;-55
2023/12/07 10:42:02;;;;;;;60.23;30.95;;;;;;;0.82;92.60;100803.75;1829780;78;25958;-52
2023/12/07 10:44:32;;;;;;;57.65;29.82;;;;;;;0.78;92.21;100808.44;1829861;78;25557;-55
2023/12/07 10:47:01;;;;;;;62.85;32.45;;;;;;;0.77;92.40;100805.47;1795243;78;27327;-53
2023/12/07 10:49:30;;;;;;;60.30;31.40;;;;;;;0.78;92.80;100807.10;1829722;78;25734;-55
2023/12/07 10:52:02;;;;;;;54.27;30.72;;;;;;;0.77;92.58;100805.47;1829770;78;25396;-55
2023/12/07 10:54:46;;;;;;;60.43;30.48;;;;;;;0.74;92.49;100804.09;1829768;78;25619;-57
2023/12/07 10:57:16;;;;;;;58.48;31.00;;;;;;;0.71;92.25;100805.34;1827680;78;25421;-56
2023/12/07 10:59:46;;;;;;;62.45;31.15;;;;;;;0.72;92.68;100801.66;1829882;78;27970;-53
2023/12/07 11:02:16;;;;;;;56.95;31.37;;;;;;;0.70;92.34;100802.41;1829644;78;25530;-53
2023/12/07 11:04:46;;;;;;;60.20;29.55;;;;;;;0.70;92.59;100795.76;1829819;78;25359;-53
2023/12/07 11:07:22;;;;;;;59.30;30.12;;;;;;;0.70;92.42;100802.95;1829655;78;26318;-55
2023/12/07 11:10:05;;;;;;;58.42;32.03;;;;;;;0.68;92.67;100804.50;1829801;78;25553;-54
2023/12/07 11:12:53;;;;;;;58.80;30.50;;;;;;;0.69;92.64;100807.97;1829794;78;27368;-56
2023/12/07 11:15:24;;;;;;;45.78;23.25;;;;;;;0.72;92.82;100804.32;1829867;78;26006;-55